Time;durP1;ratioP1;P1;durP2;ratioP2;P2;SDS_P1;SDS_P2;PMS_P1;PMS_P2;Temp;Humidity;BMP_temperature;BMP_pressure;BME280_temperature;BME280_humidity;BME280_pressure;Samples;Min_cycle;Max_cycle;Signal;HPM_P1;HPM_P2
2022/12/30 00:00:19;;;;;;;12.67;3.13;;;;;;;6.95;75.14;100697.13;5116447;28;20675;-68
2022/12/30 00:02:45;;;;;;;12.53;4.60;;;;;;;6.89;75.68;100684.16;5116158;28;20212;-68
2022/12/30 00:05:12;;;;;;;14.87;4.13;;;;;;;6.86;76.20;100697.63;5116039;28;20197;-68
2022/12/30 00:07:38;;;;;;;9.63;3.73;;;;;;;7.09;75.70;100690.13;5116012;28;20288;-68
2022/12/30 00:10:05;;;;;;;7.83;3.50;;;;;;;7.07;75.64;100698.22;5116130;28;20548;-68
2022/12/30 00:35:20;;;;;;;14.40;3.80;;;;;;;6.90;76.01;100711.66;5116032;28;20542;-68
2022/12/30 00:37:46;;;;;;;12.90;3.70;;;;;;;6.87;75.90;100720.66;5115873;28;20192;-68
2022/12/30 00:40:18;;;;;;;9.17;4.00;;;;;;;6.85;75.99;100719.00;5116030;28;20252;-68
2022/12/30 00:45:30;;;;;;;16.87;3.30;;;;;;;6.71;76.72;100722.47;5115523;28;20174;-69
2022/12/30 00:47:56;;;;;;;9.30;3.17;;;;;;;6.66;76.82;100730.72;5115166;28;20596;-68
2022/12/30 00:56:11;;;;;;;6.83;3.00;;;;;;;6.55;76.80;100728.63;5115190;28;20212;-68
2022/12/30 00:58:38;;;;;;;10.30;2.87;;;;;;;6.48;76.97;100734.38;5115282;28;20180;-68
2022/12/30 01:01:04;;;;;;;4.73;3.00;;;;;;;6.50;77.01;100748.47;5114820;28;20669;-68
2022/12/30 01:03:30;;;;;;;9.03;3.17;;;;;;;6.44;76.82;100751.44;5114390;28;20191;-68
2022/12/30 01:05:57;;;;;;;13.73;3.67;;;;;;;6.49;76.47;100757.34;5114747;28;20246;-68
2022/12/30 01:08:23;;;;;;;15.30;2.97;;;;;;;6.39;76.78;100749.91;5114780;28;20191;-68
2022/12/30 01:10:50;;;;;;;5.63;2.90;;;;;;;6.27;77.53;100753.19;5115032;28;20193;-68
2022/12/30 01:13:16;;;;;;;8.37;2.90;;;;;;;6.24;78.05;100747.19;5114683;28;20200;-68
2022/12/30 01:15:42;;;;;;;9.93;2.87;;;;;;;6.27;77.62;100745.22;5114553;28;20209;-68
2022/12/30 01:18:09;;;;;;;16.77;3.77;;;;;;;6.29;77.03;100758.44;5115158;28;20185;-68
2022/12/30 01:20:36;;;;;;;7.67;2.90;;;;;;;6.24;77.21;100753.38;5115066;28;20564;-68
2022/12/30 01:23:03;;;;;;;12.10;3.13;;;;;;;6.24;76.94;100757.84;5115279;28;20292;-68
2022/12/30 01:25:29;;;;;;;3.87;3.40;;;;;;;6.21;77.62;100761.53;5114654;28;20616;-68
2022/12/30 01:27:56;;;;;;;5.53;3.00;;;;;;;6.20;77.30;100770.41;5114980;28;20263;-68
2022/12/30 01:30:22;;;;;;;3.40;3.17;;;;;;;6.25;76.95;100772.84;5114575;28;20185;-68
2022/12/30 01:32:48;;;;;;;4.17;3.53;;;;;;;6.24;76.90;100777.31;5114338;28;20268;-68
2022/12/30 01:35:15;;;;;;;4.83;3.30;;;;;;;6.17;77.29;100775.91;5114287;28;20192;-68
2022/12/30 01:37:41;;;;;;;11.47;3.13;;;;;;;6.12;77.61;100781.47;5114175;28;20274;-68
2022/12/30 01:40:08;;;;;;;8.60;3.60;;;;;;;6.06;77.93;100778.28;5114476;28;20191;-68
2022/12/30 01:42:39;;;;;;;7.80;3.20;;;;;;;6.12;77.69;100788.59;5114134;28;20209;-68
2022/12/30 01:45:23;;;;;;;16.63;3.87;;;;;;;6.02;77.85;100790.03;5114083;28;20191;-68
2022/12/30 01:48:14;;;;;;;8.50;3.63;;;;;;;6.05;77.97;100790.69;5114379;28;20557;-68
2022/12/30 01:50:49;;;;;;;9.43;3.60;;;;;;;6.09;77.81;100796.75;5114653;28;20262;-68
2022/12/30 01:53:31;;;;;;;8.37;2.63;;;;;;;6.08;77.72;100795.88;5114005;28;20171;-68
2022/12/30 01:56:27;;;;;;;16.43;3.20;;;;;;;6.05;78.14;100796.03;5113952;28;20223;-69
2022/12/30 01:58:59;;;;;;;8.83;2.43;;;;;;;6.09;77.83;100800.25;5102969;28;20239;-69
2022/12/30 02:01:26;;;;;;;5.87;2.93;;;;;;;6.06;78.32;100796.91;5095609;28;20178;-69
2022/12/30 02:03:58;;;;;;;5.27;3.07;;;;;;;6.17;78.04;100795.38;5113849;28;20181;-68
2022/12/30 02:06:34;;;;;;;14.07;3.83;;;;;;;6.13;78.04;100795.63;5114101;28;20288;-68
2022/12/30 02:09:01;;;;;;;5.63;2.87;;;;;;;6.23;77.21;100798.69;5114105;28;20613;-68
2022/12/30 02:11:28;;;;;;;4.93;2.70;;;;;;;6.14;77.46;100800.00;5114061;28;20271;-68
2022/12/30 02:13:55;;;;;;;6.70;2.27;;;;;;;6.10;77.91;100790.47;5113932;28;20192;-68
2022/12/30 02:16:46;;;;;;;9.20;3.30;;;;;;;6.06;77.94;100789.78;5113559;28;20211;-68
2022/12/30 02:19:38;;;;;;;6.63;3.10;;;;;;;6.02;78.28;100798.84;5113660;28;20209;-68
2022/12/30 02:22:31;;;;;;;7.07;2.80;;;;;;;5.99;78.10;100788.38;5113574;28;20212;-68
2022/12/30 02:25:28;;;;;;;3.27;2.57;;;;;;;6.06;77.83;100786.28;5113669;28;20174;-68
2022/12/30 02:28:13;;;;;;;4.23;2.50;;;;;;;6.11;77.71;100787.75;5113872;28;20185;-68
2022/12/30 02:31:14;;;;;;;12.40;3.73;;;;;;;6.16;77.58;100787.50;5113882;28;20211;-68
2022/12/30 02:33:56;;;;;;;5.63;3.20;;;;;;;6.18;77.76;100777.66;5114152;28;20176;-68
2022/12/30 02:36:49;;;;;;;15.20;3.53;;;;;;;6.19;77.44;100790.00;5113756;28;20212;-69
2022/12/30 02:39:36;;;;;;;9.30;2.90;;;;;;;6.27;77.58;100789.56;5114027;28;20176;-68
2022/12/30 02:45:30;;;;;;;7.83;3.50;;;;;;;6.28;77.58;100797.50;5113994;28;20261;-68
2022/12/30 02:48:08;;;;;;;15.53;3.50;;;;;;;6.31;77.19;100796.47;5109783;28;20215;-68
2022/12/30 02:53:42;;;;;;;6.27;3.00;;;;;;;6.29;76.83;100803.66;5011291;28;20200;-68
2022/12/30 02:56:09;;;;;;;5.53;2.63;;;;;;;6.24;77.14;100803.91;5011044;28;20217;-68
2022/12/30 02:58:42;;;;;;;4.60;3.07;;;;;;;6.24;77.03;100795.91;5059594;28;20291;-68
2022/12/30 03:04:46;;;;;;;8.40;2.77;;;;;;;6.17;77.70;100799.84;5113880;28;20182;-68
2022/12/30 03:07:42;;;;;;;15.97;2.93;;;;;;;6.14;77.71;100787.56;5113228;28;20218;-68
2022/12/30 03:13:22;;;;;;;16.53;3.07;;;;;;;6.22;77.41;100787.16;5113836;28;20210;-68
2022/12/30 03:15:58;;;;;;;6.27;3.37;;;;;;;6.16;77.50;100777.72;5113711;28;20618;-68
2022/12/30 03:18:27;;;;;;;14.73;3.57;;;;;;;6.16;77.12;100779.53;5113184;28;20179;-68
2022/12/30 03:20:54;;;;;;;16.63;2.80;;;;;;;6.14;77.31;100771.63;5113156;28;20193;-68
2022/12/30 03:28:58;;;;;;;6.73;3.10;;;;;;;6.07;77.31;100767.56;5117333;28;20263;-68
2022/12/30 03:31:24;;;;;;;6.90;2.57;;;;;;;6.11;77.16;100769.13;5117278;28;20169;-68
2022/12/30 03:33:51;;;;;;;8.90;2.67;;;;;;;6.08;77.46;100761.31;5116643;28;20647;-68
2022/12/30 03:36:31;;;;;;;7.07;3.33;;;;;;;6.11;77.35;100760.31;5116722;28;20270;-68
2022/12/30 03:39:13;;;;;;;13.30;3.67;;;;;;;6.11;77.40;100757.63;5117165;28;20184;-68
2022/12/30 03:41:43;;;;;;;4.97;3.50;;;;;;;6.08;77.12;100756.00;5116736;28;20169;-68
2022/12/30 03:44:10;;;;;;;4.70;3.40;;;;;;;6.08;77.01;100755.13;5116744;28;20563;-68
2022/12/30 03:46:40;;;;;;;6.73;3.10;;;;;;;6.09;76.80;100749.72;5116320;28;20205;-68
2022/12/30 03:49:07;;;;;;;15.50;3.00;;;;;;;6.00;77.01;100752.88;5116688;28;20166;-68
2022/12/30 03:51:33;;;;;;;17.23;3.60;;;;;;;6.01;77.02;100746.63;5116297;28;20187;-68
2022/12/30 03:53:59;;;;;;;7.53;3.87;;;;;;;5.99;77.34;100739.69;5116835;28;20188;-68
2022/12/30 03:56:26;;;;;;;16.73;3.10;;;;;;;5.97;77.10;100753.03;5116138;28;20704;-68
2022/12/30 03:58:52;;;;;;;7.27;2.60;;;;;;;6.00;77.21;100762.66;5116689;28;20189;-68
2022/12/30 04:01:19;;;;;;;5.87;3.43;;;;;;;5.91;77.43;100764.84;5116106;28;20189;-68
2022/12/30 04:03:45;;;;;;;5.87;3.00;;;;;;;5.89;77.81;100756.06;5116026;28;20295;-68
2022/12/30 04:06:12;;;;;;;7.33;2.80;;;;;;;5.90;77.55;100757.78;5115925;28;20212;-68
2022/12/30 04:08:38;;;;;;;5.50;2.63;;;;;;;5.90;77.87;100756.94;5116532;28;20268;-68
2022/12/30 04:11:05;;;;;;;4.67;2.77;;;;;;;5.88;77.95;100753.47;5116217;28;20685;-68
2022/12/30 04:13:31;;;;;;;9.60;3.07;;;;;;;5.93;77.39;100759.41;5115909;28;20666;-68
2022/12/30 04:15:58;;;;;;;6.63;3.87;;;;;;;5.91;77.92;100751.53;5115743;28;20702;-68
2022/12/30 04:18:24;;;;;;;10.93;3.07;;;;;;;5.93;77.66;100754.09;5115784;28;20250;-68
2022/12/30 04:20:50;;;;;;;6.57;2.73;;;;;;;5.96;77.51;100754.84;5115643;28;20200;-68
2022/12/30 04:23:17;;;;;;;7.07;2.90;;;;;;;5.87;77.75;100749.97;5115894;28;20205;-68
2022/12/30 04:25:44;;;;;;;5.63;3.20;;;;;;;5.85;78.17;100754.50;5115556;28;20209;-68
2022/12/30 04:28:10;;;;;;;7.63;3.07;;;;;;;5.90;77.83;100759.59;5115867;28;20183;-68
2022/12/30 04:30:37;;;;;;;7.70;3.47;;;;;;;5.84;77.82;100763.44;5115568;28;20209;-68
2022/12/30 04:33:03;;;;;;;4.43;3.00;;;;;;;5.74;78.35;100760.34;5115776;28;20188;-68
2022/12/30 04:35:30;;;;;;;3.30;2.80;;;;;;;5.74;78.18;100763.00;5115384;28;20191;-68
2022/12/30 04:37:56;;;;;;;12.77;3.23;;;;;;;5.63;78.45;100754.75;5114548;28;20192;-68
2022/12/30 04:40:22;;;;;;;10.33;4.30;;;;;;;5.58;78.69;100762.09;5115319;28;20195;-68
2022/12/30 04:42:49;;;;;;;3.80;2.87;;;;;;;5.54;79.21;100757.88;5115509;28;20671;-68
2022/12/30 04:45:15;;;;;;;3.47;3.17;;;;;;;5.59;79.18;100761.16;5115284;28;20205;-68
2022/12/30 04:47:42;;;;;;;4.53;2.93;;;;;;;5.67;78.75;100764.25;5115170;28;20291;-68
2022/12/30 04:50:08;;;;;;;8.13;3.40;;;;;;;5.70;78.93;100761.47;5115704;28;20696;-68
2022/12/30 04:52:34;;;;;;;17.07;4.30;;;;;;;5.59;79.17;100755.84;5115206;28;20275;-68
2022/12/30 04:55:01;;;;;;;7.60;3.10;;;;;;;5.59;79.07;100747.88;5115103;28;20187;-68
2022/12/30 04:57:27;;;;;;;12.43;3.37;;;;;;;5.49;79.15;100758.09;5115244;28;20208;-68
2022/12/30 04:59:53;;;;;;;11.90;3.60;;;;;;;5.41;79.62;100756.75;5115282;28;20204;-68
2022/12/30 05:02:20;;;;;;;8.03;3.67;;;;;;;5.43;79.85;100755.72;5114874;28;20211;-68
2022/12/30 05:04:46;;;;;;;6.50;3.97;;;;;;;5.37;80.05;100748.09;5114848;28;20677;-68
2022/12/30 05:07:12;;;;;;;5.30;2.70;;;;;;;5.35;79.93;100754.41;5114770;28;20216;-68
2022/12/30 05:09:39;;;;;;;5.83;3.63;;;;;;;5.37;80.00;100760.50;5114776;28;20189;-68
2022/12/30 05:12:06;;;;;;;7.33;3.97;;;;;;;5.42;79.66;100761.16;5115288;28;20190;-68
2022/12/30 05:14:32;;;;;;;11.07;3.70;;;;;;;5.33;80.00;100765.09;5114706;28;20199;-68
2022/12/30 05:16:58;;;;;;;9.03;4.03;;;;;;;5.35;79.87;100767.69;5114594;28;20213;-68
2022/12/30 05:19:25;;;;;;;9.03;4.00;;;;;;;5.23;80.24;100774.47;5114586;28;20185;-68
2022/12/30 05:21:51;;;;;;;5.87;3.30;;;;;;;5.27;80.57;100779.56;5114440;28;20204;-68
2022/12/30 05:27:02;;;;;;;4.03;3.70;;;;;;;5.28;80.16;100767.97;5114717;28;20220;-68
2022/12/30 05:29:29;;;;;;;11.87;3.90;;;;;;;5.33;80.17;100775.72;5114441;28;20264;-68
2022/12/30 05:31:55;;;;;;;15.47;4.37;;;;;;;5.31;80.26;100773.13;5114351;28;20185;-68
2022/12/30 05:34:22;;;;;;;7.33;4.37;;;;;;;5.38;80.02;100781.66;5114670;28;20185;-68
2022/12/30 05:36:48;;;;;;;14.27;4.70;;;;;;;5.37;80.06;100776.44;5114238;28;20211;-68
2022/12/30 05:39:14;;;;;;;21.53;4.10;;;;;;;5.30;80.06;100776.75;5114797;28;20191;-68
2022/12/30 05:41:41;;;;;;;9.03;3.10;;;;;;;5.33;79.80;100779.22;5114178;28;20216;-68
2022/12/30 05:44:07;;;;;;;12.97;4.30;;;;;;;5.35;80.09;100775.66;5114343;28;20209;-68
2022/12/30 05:46:34;;;;;;;11.67;3.63;;;;;;;5.33;80.08;100787.19;5114013;28;20212;-69
2022/12/30 05:49:00;;;;;;;11.43;3.97;;;;;;;5.33;80.05;100789.00;5113770;28;20212;-68
2022/12/30 05:51:26;;;;;;;16.73;3.70;;;;;;;5.33;80.24;100789.00;5114046;28;20189;-68
2022/12/30 05:53:53;;;;;;;10.47;3.43;;;;;;;5.33;80.37;100784.53;5114249;28;20187;-68
2022/12/30 05:56:19;;;;;;;8.73;4.30;;;;;;;5.35;80.28;100767.69;5114249;28;20207;-68
2022/12/30 05:58:46;;;;;;;6.37;3.90;;;;;;;5.30;80.59;100774.09;5113931;28;20197;-68
2022/12/30 06:01:12;;;;;;;9.03;3.97;;;;;;;5.34;80.53;100761.53;5114244;28;20592;-68
2022/12/30 06:03:38;;;;;;;13.37;3.80;;;;;;;5.31;80.32;100770.47;5113878;28;20196;-68
2022/12/30 06:06:07;;;;;;;4.07;3.77;;;;;;;5.33;80.17;100763.31;5113920;28;20213;-68
2022/12/30 06:08:34;;;;;;;9.33;3.73;;;;;;;5.33;80.07;100758.00;5114358;28;20181;-68
2022/12/30 06:11:01;;;;;;;7.50;4.17;;;;;;;5.38;79.83;100760.41;5113788;28;20673;-68
2022/12/30 06:13:28;;;;;;;9.83;4.13;;;;;;;5.40;80.23;100761.22;5114009;28;20181;-68
2022/12/30 06:15:54;;;;;;;13.60;4.30;;;;;;;5.31;79.99;100746.59;5113947;28;20197;-68
2022/12/30 06:18:20;;;;;;;17.13;4.20;;;;;;;5.36;79.99;100743.69;5113730;28;20189;-68
2022/12/30 06:20:47;;;;;;;7.40;3.77;;;;;;;5.42;79.41;100753.19;5113724;28;20621;-68
2022/12/30 06:23:14;;;;;;;8.70;4.83;;;;;;;5.38;80.14;100748.94;5113597;28;20632;-68
2022/12/30 06:25:40;;;;;;;13.27;3.27;;;;;;;5.43;79.67;100745.13;5113571;28;20217;-68
2022/12/30 06:28:07;;;;;;;6.00;3.70;;;;;;;5.47;79.70;100743.19;5113598;28;20204;-68
2022/12/30 06:30:33;;;;;;;6.43;4.50;;;;;;;5.43;79.50;100747.75;5113840;28;20192;-68
2022/12/30 06:32:59;;;;;;;3.90;3.43;;;;;;;5.50;79.39;100756.28;5113565;28;20185;-68
2022/12/30 06:35:27;;;;;;;14.10;3.30;;;;;;;5.56;78.95;100765.78;5113705;28;20185;-68
2022/12/30 06:37:53;;;;;;;13.50;3.10;;;;;;;5.65;78.22;100750.22;5113501;28;20203;-68
2022/12/30 06:40:20;;;;;;;5.77;3.67;;;;;;;5.61;78.57;100751.31;5113820;28;20206;-68
2022/12/30 06:42:47;;;;;;;7.53;2.83;;;;;;;5.69;77.98;100746.44;5114311;28;20189;-68
2022/12/30 06:45:13;;;;;;;11.60;4.17;;;;;;;5.68;77.71;100747.41;5113477;28;20193;-68
2022/12/30 06:47:39;;;;;;;3.70;3.53;;;;;;;5.73;77.91;100753.34;5113400;28;20205;-67
2022/12/30 06:50:06;;;;;;;3.63;3.30;;;;;;;5.72;77.61;100742.78;5113375;28;20277;-67
2022/12/30 06:52:33;;;;;;;9.07;3.00;;;;;;;5.73;77.60;100737.38;5113417;28;20220;-67
2022/12/30 06:54:59;;;;;;;10.53;3.43;;;;;;;5.81;77.32;100731.66;5113390;28;20192;-68
2022/12/30 06:57:25;;;;;;;7.73;3.83;;;;;;;5.81;77.34;100733.47;5113635;28;20569;-68
2022/12/30 06:59:52;;;;;;;8.37;3.37;;;;;;;5.82;77.08;100730.75;5113399;28;20204;-68
2022/12/30 07:02:18;;;;;;;7.93;3.67;;;;;;;5.74;77.26;100725.81;5115906;28;20181;-68
2022/12/30 07:04:45;;;;;;;10.17;3.27;;;;;;;5.75;77.22;100732.00;5117765;28;20205;-68
2022/12/30 07:07:11;;;;;;;8.73;3.23;;;;;;;5.70;77.50;100729.59;5117090;28;20213;-68
2022/12/30 07:09:37;;;;;;;8.47;3.20;;;;;;;5.70;77.47;100724.28;5117168;28;20205;-68
2022/12/30 07:12:04;;;;;;;5.10;3.13;;;;;;;5.70;77.40;100726.06;5117637;28;20228;-68
2022/12/30 07:14:30;;;;;;;5.33;4.17;;;;;;;5.75;77.24;100716.06;5117022;28;20224;-68
2022/12/30 07:16:57;;;;;;;4.10;3.03;;;;;;;5.88;76.78;100711.81;5117208;28;20642;-68
2022/12/30 07:19:25;;;;;;;2.93;2.77;;;;;;;5.84;76.94;100712.06;5117214;28;20205;-68
2022/12/30 07:21:51;;;;;;;3.03;2.70;;;;;;;5.89;76.59;100710.00;5116844;28;20529;-68
2022/12/30 07:24:18;;;;;;;5.40;2.40;;;;;;;5.89;76.75;100705.56;5117078;28;20295;-68
2022/12/30 07:26:44;;;;;;;9.67;3.30;;;;;;;5.89;76.78;100699.38;5116804;28;20224;-68
2022/12/30 07:29:12;;;;;;;4.73;2.63;;;;;;;5.92;76.43;100697.44;5116721;28;20677;-68
2022/12/30 07:31:39;;;;;;;2.43;2.33;;;;;;;5.97;76.51;100705.19;5116999;28;20587;-68
2022/12/30 07:34:06;;;;;;;7.47;3.23;;;;;;;5.99;76.38;100715.75;5116654;28;20540;-68
2022/12/30 07:36:33;;;;;;;10.33;2.47;;;;;;;6.00;76.40;100713.00;5116592;28;20202;-68
2022/12/30 07:38:59;;;;;;;8.23;3.37;;;;;;;6.06;76.18;100706.50;5116566;28;20196;-68
2022/12/30 07:41:26;;;;;;;4.13;2.77;;;;;;;6.03;76.20;100714.63;5116849;28;20269;-68
2022/12/30 07:43:53;;;;;;;4.83;2.57;;;;;;;6.01;76.33;100703.22;5116422;28;20240;-68
2022/12/30 07:46:19;;;;;;;3.80;2.50;;;;;;;6.03;76.11;100715.47;5116733;28;20209;-68
2022/12/30 07:48:46;;;;;;;5.17;3.17;;;;;;;6.10;76.01;100700.91;5116893;28;20177;-68
2022/12/30 07:51:14;;;;;;;3.90;3.60;;;;;;;6.15;75.97;100693.59;5116626;28;20543;-68
2022/12/30 07:53:41;;;;;;;8.13;2.43;;;;;;;6.23;75.67;100695.81;5116322;28;20208;-68
2022/12/30 07:56:10;;;;;;;4.73;2.10;;;;;;;6.27;75.81;100683.19;5116198;28;20233;-68
2022/12/30 07:58:38;;;;;;;3.10;2.93;;;;;;;6.32;75.73;100678.47;5116461;28;20215;-68
2022/12/30 08:01:08;;;;;;;2.27;2.17;;;;;;;6.37;75.24;100672.00;5116114;28;20727;-68
2022/12/30 08:03:35;;;;;;;2.00;1.90;;;;;;;6.33;75.59;100673.09;5116361;28;20204;-68
2022/12/30 08:06:07;;;;;;;4.17;2.03;;;;;;;6.33;75.56;100666.91;5116048;28;20234;-68
2022/12/30 08:08:34;;;;;;;2.83;2.07;;;;;;;6.34;75.71;100663.31;5116269;28;20197;-68
2022/12/30 08:11:02;;;;;;;2.63;2.40;;;;;;;6.35;75.54;100649.94;5115966;28;20242;-68
2022/12/30 08:13:34;;;;;;;2.50;1.50;;;;;;;6.42;75.15;100653.13;5115638;28;20211;-68
2022/12/30 08:16:26;;;;;;;5.20;1.83;;;;;;;6.51;75.36;100659.69;5116038;28;20236;-68
2022/12/30 08:18:53;;;;;;;3.10;2.90;;;;;;;6.56;75.18;100652.31;5112053;28;20205;-68
2022/12/30 08:21:20;;;;;;;2.87;2.80;;;;;;;6.62;75.00;100654.66;5116620;28;20578;-68
2022/12/30 08:23:47;;;;;;;3.37;2.27;;;;;;;6.60;74.80;100645.88;5116182;28;20232;-68
2022/12/30 08:26:16;;;;;;;2.50;2.17;;;;;;;6.71;74.63;100640.81;5116171;28;20293;-68
2022/12/30 08:28:43;;;;;;;6.10;2.43;;;;;;;6.76;74.47;100627.25;5115924;28;20212;-68
2022/12/30 08:31:15;;;;;;;3.07;2.43;;;;;;;6.77;74.39;100620.97;5115694;28;20243;-68
2022/12/30 08:33:44;;;;;;;2.30;2.20;;;;;;;6.80;74.19;100618.16;5116001;28;20181;-68
2022/12/30 08:36:12;;;;;;;4.97;2.07;;;;;;;6.84;74.40;100613.50;5115419;28;20213;-68
2022/12/30 08:38:42;;;;;;;2.83;1.70;;;;;;;6.95;73.53;100611.06;5115621;28;20671;-67
2022/12/30 08:41:14;;;;;;;3.20;1.90;;;;;;;7.02;73.47;100602.63;5116080;28;20229;-68
2022/12/30 08:43:41;;;;;;;4.00;2.40;;;;;;;7.03;73.41;100598.16;5115785;28;20237;-68
2022/12/30 08:46:08;;;;;;;2.43;2.30;;;;;;;7.12;73.50;100591.44;5115497;28;20705;-68
2022/12/30 08:48:34;;;;;;;3.60;1.97;;;;;;;7.14;73.53;100593.06;5115819;28;20220;-68
2022/12/30 08:51:01;;;;;;;1.97;1.90;;;;;;;7.11;73.62;100595.91;5115191;28;20616;-68
2022/12/30 08:53:28;;;;;;;3.70;2.50;;;;;;;7.19;73.72;100588.31;5115112;28;20177;-68
2022/12/30 08:56:10;;;;;;;4.37;2.00;;;;;;;7.30;72.71;100587.66;5115178;28;20299;-68
2022/12/30 08:58:36;;;;;;;7.30;2.80;;;;;;;7.33;72.41;100589.28;5115438;28;20169;-68
2022/12/30 09:01:36;;;;;;;1.80;1.70;;;;;;;7.31;72.89;100584.06;5114976;28;20181;-68
2022/12/30 09:04:06;;;;;;;3.17;2.20;;;;;;;7.34;72.98;100575.88;5115376;28;20730;-68
2022/12/30 09:06:35;;;;;;;2.47;1.50;;;;;;;7.45;71.86;100580.56;5114951;28;20246;-68
2022/12/30 09:09:04;;;;;;;7.03;2.23;;;;;;;7.55;71.82;100588.84;5115092;28;20271;-68
2022/12/30 09:11:33;;;;;;;2.83;2.60;;;;;;;7.59;71.25;100579.69;5114728;28;20276;-68
2022/12/30 09:14:02;;;;;;;1.97;1.87;;;;;;;7.65;70.66;100568.66;5115227;28;20213;-68
2022/12/30 09:16:30;;;;;;;2.40;1.83;;;;;;;7.70;71.19;100571.03;5114601;28;20207;-68
2022/12/30 09:18:57;;;;;;;5.07;1.70;;;;;;;7.74;70.73;100559.22;5114903;28;20189;-68
2022/12/30 09:21:24;;;;;;;2.07;1.87;;;;;;;7.75;71.47;100559.13;5114637;28;20284;-68
2022/12/30 09:23:50;;;;;;;1.90;1.80;;;;;;;7.77;71.22;100562.56;5113805;28;20236;-68
2022/12/30 09:26:20;;;;;;;1.47;1.47;;;;;;;7.87;70.89;100560.16;5114616;28;20205;-68
2022/12/30 09:28:47;;;;;;;1.67;1.67;;;;;;;7.89;70.79;100566.25;5115234;28;20701;-68
2022/12/30 09:31:14;;;;;;;1.87;1.80;;;;;;;7.96;70.21;100564.91;5114424;28;20260;-68
2022/12/30 09:33:41;;;;;;;2.33;1.80;;;;;;;7.96;70.51;100550.72;5096288;28;20192;-68
2022/12/30 09:36:07;;;;;;;2.03;1.83;;;;;;;8.06;69.79;100550.03;5114231;28;20207;-68
2022/12/30 09:38:34;;;;;;;2.13;2.03;;;;;;;8.06;69.60;100539.34;5114273;28;20249;-68
2022/12/30 09:43:14;;;;;;;2.60;2.10;;;;;;;8.12;69.58;100531.91;5114247;28;20212;-68
2022/12/30 09:44:49;;;;;;;1.63;1.50;;;;;;;8.15;68.87;100529.06;5114374;28;20299;-68
2022/12/30 09:47:22;;;;;;;4.63;1.73;;;;;;;8.18;69.55;100515.53;5115044;28;20205;-68
2022/12/30 09:49:55;;;;;;;1.67;1.57;;;;;;;8.20;69.46;100532.28;5114365;28;20174;-68
2022/12/30 09:52:31;;;;;;;1.77;1.77;;;;;;;8.21;69.36;100508.19;5114102;28;20200;-68
2022/12/30 09:55:17;;;;;;;2.30;1.97;;;;;;;8.24;68.77;100507.13;5114347;28;20623;-68
2022/12/30 09:57:51;;;;;;;3.30;1.83;;;;;;;8.24;68.91;100491.97;5113875;28;20483;-68
2022/12/30 10:00:20;;;;;;;4.30;2.17;;;;;;;8.28;69.31;100485.47;5114171;28;20264;-68
2022/12/30 10:03:00;;;;;;;1.70;1.70;;;;;;;8.33;68.72;100487.81;5113904;28;20185;-68
2022/12/30 10:05:46;;;;;;;1.70;1.63;;;;;;;8.29;68.66;100481.84;5114001;28;20200;-68
2022/12/30 10:08:41;;;;;;;2.73;2.53;;;;;;;8.31;69.32;100471.09;5114477;28;20208;-68
2022/12/30 10:11:52;;;;;;;1.77;1.57;;;;;;;8.30;69.17;100458.69;5114106;28;20265;-68
2022/12/30 10:14:56;;;;;;;2.83;2.40;;;;;;;8.31;69.84;100455.06;5088786;28;20189;-68
2022/12/30 10:17:44;;;;;;;2.23;2.13;;;;;;;8.34;68.94;100452.19;5113746;28;20289;-68
2022/12/30 10:20:42;;;;;;;6.33;2.47;;;;;;;8.37;69.08;100443.97;5114140;28;20685;-68
2022/12/30 10:23:43;;;;;;;1.97;1.87;;;;;;;8.42;68.11;100435.69;5114252;28;20177;-68
2022/12/30 10:26:15;;;;;;;3.80;1.50;;;;;;;8.46;68.06;100431.88;5096258;28;20634;-68
2022/12/30 10:29:04;;;;;;;1.60;1.60;;;;;;;8.50;68.94;100430.72;5113662;28;20193;-68
2022/12/30 10:31:36;;;;;;;2.63;1.97;;;;;;;8.50;68.00;100436.06;5114015;28;20694;-68
2022/12/30 10:34:12;;;;;;;2.07;2.07;;;;;;;8.56;67.81;100419.59;5113633;28;20178;-68
2022/12/30 10:36:43;;;;;;;2.30;2.30;;;;;;;8.61;66.71;100420.13;5117208;28;20201;-68
2022/12/30 10:39:24;;;;;;;9.30;2.03;;;;;;;8.65;66.78;100412.78;5117789;28;20586;-68
2022/12/30 10:42:28;;;;;;;3.33;2.23;;;;;;;8.61;67.81;100409.47;5118232;28;20173;-68
2022/12/30 10:45:02;;;;;;;3.23;1.90;;;;;;;8.74;67.00;100412.16;5118157;28;20620;-68
2022/12/30 10:47:43;;;;;;;1.87;1.70;;;;;;;8.79;67.63;100406.47;5099553;28;20321;-68
2022/12/30 10:50:24;;;;;;;3.80;2.07;;;;;;;8.82;67.46;100396.44;5117829;28;20642;-68
2022/12/30 10:52:52;;;;;;;2.93;1.70;;;;;;;8.86;66.34;100403.28;5117762;28;20260;-68
2022/12/30 10:55:29;;;;;;;3.10;1.67;;;;;;;8.82;67.07;100396.44;5117658;28;20169;-68
2022/12/30 10:58:01;;;;;;;4.90;1.70;;;;;;;8.87;66.40;100394.28;5117356;28;20209;-68
2022/12/30 11:00:29;;;;;;;3.90;1.90;;;;;;;8.86;67.42;100392.59;5117908;28;20174;-68
2022/12/30 11:03:12;;;;;;;4.00;1.77;;;;;;;8.85;66.68;100388.22;5117565;28;20671;-68
2022/12/30 11:05:39;;;;;;;1.70;1.60;;;;;;;8.90;66.08;100383.38;5117605;28;20202;-68
2022/12/30 11:08:20;;;;;;;1.83;1.83;;;;;;;8.84;66.59;100385.66;5117202;28;20189;-68
2022/12/30 11:11:05;;;;;;;2.80;1.43;;;;;;;8.81;66.26;100372.50;5117203;28;20170;-68
2022/12/30 11:16:26;;;;;;;1.60;1.37;;;;;;;8.83;66.95;100357.22;5117209;28;20244;-68
2022/12/30 11:18:52;;;;;;;1.90;1.80;;;;;;;8.81;67.19;100354.69;5117228;28;20191;-67
2022/12/30 11:21:33;;;;;;;1.40;1.40;;;;;;;8.84;67.26;100334.94;5116958;28;20220;-67
2022/12/30 11:24:02;;;;;;;2.00;2.00;;;;;;;8.77;67.87;100326.50;5116808;28;20236;-67
2022/12/30 11:26:32;;;;;;;2.10;2.00;;;;;;;8.76;67.75;100332.78;5116731;28;20201;-68
2022/12/30 11:29:14;;;;;;;4.07;2.10;;;;;;;8.83;67.60;100309.16;5117106;28;20209;-68
2022/12/30 11:31:47;;;;;;;3.40;1.73;;;;;;;8.74;67.58;100302.69;5116713;28;20208;-67
2022/12/30 11:34:24;;;;;;;2.90;2.70;;;;;;;8.77;67.33;100313.13;5116968;28;20256;-68
2022/12/30 11:36:50;;;;;;;4.40;1.87;;;;;;;8.75;66.99;100295.53;5116743;28;20279;-67
2022/12/30 11:39:23;;;;;;;2.10;2.00;;;;;;;8.82;66.98;100292.31;5117136;28;20272;-67
2022/12/30 11:41:52;;;;;;;2.30;2.30;;;;;;;8.78;67.14;100287.28;5117002;28;20198;-68
2022/12/30 11:44:28;;;;;;;5.80;2.40;;;;;;;8.73;68.10;100274.28;5116795;28;20732;-67
2022/12/30 11:46:56;;;;;;;2.67;1.80;;;;;;;8.67;67.87;100261.38;5115945;28;20212;-68
2022/12/30 11:49:46;;;;;;;2.20;2.13;;;;;;;8.74;67.37;100249.28;5116726;28;20264;-68
2022/12/30 11:52:24;;;;;;;2.47;2.00;;;;;;;8.68;67.64;100260.41;5116662;28;20174;-68
2022/12/30 11:54:54;;;;;;;3.03;2.43;;;;;;;8.72;67.64;100240.53;5116907;28;20252;-68
2022/12/30 11:57:27;;;;;;;3.10;1.90;;;;;;;8.67;67.95;100238.19;5116768;28;20572;-68
2022/12/30 11:59:57;;;;;;;5.20;2.20;;;;;;;8.75;67.93;100226.97;5116204;28;20170;-68
2022/12/30 12:02:30;;;;;;;2.40;2.10;;;;;;;8.70;67.60;100219.28;5116162;28;20219;-68
2022/12/30 12:04:57;;;;;;;3.90;2.23;;;;;;;8.63;67.41;100207.34;5116338;28;20205;-68
2022/12/30 12:07:42;;;;;;;2.27;2.07;;;;;;;8.66;67.16;100204.44;5116489;28;20240;-68
2022/12/30 12:10:19;;;;;;;5.43;2.60;;;;;;;8.58;67.97;100185.47;5116322;28;20287;-68
2022/12/30 12:13:00;;;;;;;2.60;2.40;;;;;;;8.56;67.88;100166.03;5116298;28;20257;-68
2022/12/30 12:15:46;;;;;;;2.40;2.30;;;;;;;8.64;67.72;100166.34;5116149;28;20169;-68
2022/12/30 12:18:21;;;;;;;3.10;2.80;;;;;;;8.61;67.51;100152.38;5097998;28;20635;-68
2022/12/30 12:21:19;;;;;;;7.13;2.97;;;;;;;8.65;67.17;100145.84;5116197;28;20188;-68
2022/12/30 12:24:08;;;;;;;5.97;2.70;;;;;;;8.62;67.26;100136.25;5116060;28;20193;-68
2022/12/30 12:26:54;;;;;;;3.50;2.83;;;;;;;8.66;67.39;100120.84;5115855;28;20225;-67
2022/12/30 12:29:21;;;;;;;4.10;3.73;;;;;;;8.69;67.14;100108.13;5115944;28;20181;-67
2022/12/30 12:32:38;;;;;;;2.40;2.33;;;;;;;8.71;67.42;100100.00;5115614;28;20189;-67
2022/12/30 12:35:30;;;;;;;4.67;2.20;;;;;;;8.77;67.20;100085.34;5079675;28;20201;-67
2022/12/30 12:38:16;;;;;;;3.07;2.60;;;;;;;8.73;66.76;100074.03;5115688;28;20201;-68
2022/12/30 12:40:49;;;;;;;3.03;2.30;;;;;;;8.74;67.21;100065.09;5115671;28;20534;-67
2022/12/30 12:43:46;;;;;;;2.73;2.53;;;;;;;8.78;67.00;100050.50;5115608;28;20282;-67
2022/12/30 12:46:22;;;;;;;2.20;2.20;;;;;;;8.78;66.84;100044.34;5115301;28;20284;-67
2022/12/30 12:49:21;;;;;;;2.90;2.63;;;;;;;8.77;67.15;100030.13;5115440;28;20242;-67